Time;durP1;ratioP1;P1;durP2;ratioP2;P2;SDS_P1;SDS_P2;PMS_P1;PMS_P2;Temp;Humidity;BMP_temperature;BMP_pressure;BME280_temperature;BME280_humidity;BME280_pressure;Samples;Min_cycle;Max_cycle;Signal;HPM_P1;HPM_P2
2023/04/09 00:01:57;;;;;;;12.63;11.73;;;10.80;46.60;;;;;;20755;6834;118124;-73
2023/04/09 00:04:23;;;;;;;14.30;13.20;;;10.60;46.90;;;;;;20765;6834;117420;-73
2023/04/09 00:06:48;;;;;;;15.40;14.30;;;10.40;47.20;;;;;;20544;6834;306821;-73
2023/04/09 00:09:14;;;;;;;14.95;13.95;;;10.60;47.50;;;;;;20526;6834;305697;-73
2023/04/09 00:11:40;;;;;;;15.82;14.65;;;11.00;47.10;;;;;;20544;6833;279351;-75
2023/04/09 00:14:07;;;;;;;16.10;14.90;;;11.60;46.50;;;;;;20538;6834;307856;-75
2023/04/09 00:16:33;;;;;;;13.13;12.07;;;11.60;46.50;;;;;;20751;6834;123722;-74
2023/04/09 00:18:58;;;;;;;14.95;13.85;;;11.40;46.30;;;;;;20533;6834;278067;-74
2023/04/09 00:21:25;;;;;;;13.73;12.63;;;11.30;46.70;;;;;;20754;6834;118060;-73
2023/04/09 00:23:50;;;;;;;13.00;11.83;;;11.20;46.60;;;;;;20750;6834;117523;-73
2023/04/09 00:26:17;;;;;;;15.20;14.10;;;11.00;46.90;;;;;;20545;6834;278007;-75
2023/04/09 00:28:42;;;;;;;14.10;13.03;;;11.00;47.40;;;;;;20747;6834;118435;-74
2023/04/09 00:31:09;;;;;;;13.63;12.53;;;11.00;47.20;;;;;;20707;6834;120270;-74
2023/04/09 00:33:34;;;;;;;15.50;14.40;;;10.70;47.30;;;;;;20482;6834;341585;-74
2023/04/09 00:35:59;;;;;;;13.97;12.87;;;10.90;47.80;;;;;;20703;6834;117295;-74
2023/04/09 00:38:25;;;;;;;13.63;12.63;;;10.80;47.50;;;;;;20721;6834;117620;-74
2023/04/09 00:40:50;;;;;;;14.23;12.93;;;10.60;47.50;;;;;;20752;6834;117499;-74
2023/04/09 00:43:16;;;;;;;15.90;14.70;;;10.60;48.20;;;;;;20513;6834;336640;-74
2023/04/09 00:45:42;;;;;;;14.23;13.10;;;10.60;48.20;;;;;;20737;6834;117068;-74
2023/04/09 00:48:08;;;;;;;15.63;14.52;;;10.60;47.80;;;;;;20531;6834;316131;-74
2023/04/09 00:50:33;;;;;;;15.40;14.20;;;10.80;47.80;;;;;;20745;6834;117346;-74
2023/04/09 00:52:59;;;;;;;17.67;16.40;;;10.80;47.60;;;;;;20503;6834;312103;-74
2023/04/09 00:55:26;;;;;;;14.95;13.85;;;10.90;47.50;;;;;;20744;6834;117867;-74
2023/04/09 00:57:51;;;;;;;15.10;13.80;;;10.80;47.30;;;;;;20734;6834;117591;-74
2023/04/09 01:00:17;;;;;;;17.03;15.80;;;10.60;47.50;;;;;;20534;6834;290824;-74
2023/04/09 01:02:42;;;;;;;16.15;14.85;;;10.70;47.80;;;;;;20738;6834;117539;-72
2023/04/09 01:05:08;;;;;;;17.03;15.80;;;10.70;47.60;;;;;;20490;6834;329268;-73
2023/04/09 01:08:00;;;;;;;18.20;16.70;;;10.80;47.80;;;;;;20524;6834;313531;-73
2023/04/09 01:10:33;;;;;;;18.08;16.77;;;11.30;46.80;;;;;;20503;6834;305796;-74
2023/04/09 01:12:59;;;;;;;18.70;17.30;;;11.30;46.80;;;;;;20482;6834;278259;-74
2023/04/09 01:15:25;;;;;;;18.03;16.73;;;11.50;46.60;;;;;;20482;6834;336942;-74
2023/04/09 01:18:05;;;;;;;18.23;16.83;;;11.60;46.80;;;;;;20512;6834;313304;-74
2023/04/09 01:20:43;;;;;;;16.70;15.60;;;11.60;46.20;;;;;;20510;6834;277504;-74
2023/04/09 01:23:15;;;;;;;15.30;14.03;;;11.70;46.10;;;;;;20698;6833;120436;-74
2023/04/09 01:25:44;;;;;;;14.73;13.47;;;11.40;46.20;;;;;;20719;6834;118160;-73
2023/04/09 01:28:22;;;;;;;12.77;11.73;;;11.00;46.80;;;;;;20692;6834;123844;-73
2023/04/09 01:30:48;;;;;;;16.05;14.90;;;10.70;47.30;;;;;;20441;6834;347819;-73
2023/04/09 01:33:14;;;;;;;13.98;12.93;;;10.80;48.20;;;;;;20685;6834;145656;-73
2023/04/09 01:35:40;;;;;;;13.83;12.73;;;10.80;47.60;;;;;;20700;6834;117445;-73
2023/04/09 01:38:06;;;;;;;14.23;13.13;;;10.50;48.00;;;;;;20657;6834;117319;-73
2023/04/09 01:40:31;;;;;;;15.47;14.37;;;10.50;48.00;;;;;;20539;6834;287456;-73
2023/04/09 01:42:57;;;;;;;15.68;14.57;;;10.60;48.50;;;;;;20443;6834;307553;-73
2023/04/09 01:45:22;;;;;;;13.52;12.52;;;11.00;48.20;;;;;;20723;6834;123518;-74
2023/04/09 01:47:48;;;;;;;16.12;14.93;;;11.00;48.50;;;;;;20514;6834;340519;-74
2023/04/09 01:50:14;;;;;;;14.77;13.67;;;11.10;47.60;;;;;;20741;6834;117484;-73
2023/04/09 01:52:39;;;;;;;16.97;15.67;;;11.00;47.40;;;;;;20577;6834;277138;-74
2023/04/09 01:55:05;;;;;;;15.57;14.38;;;11.10;47.40;;;;;;20776;6834;117991;-73
2023/04/09 01:57:31;;;;;;;17.98;16.62;;;10.90;47.10;;;;;;20577;6834;309281;-73
2023/04/09 01:59:56;;;;;;;17.13;15.83;;;11.00;47.30;;;;;;20613;6834;308739;-73
2023/04/09 02:02:22;;;;;;;17.20;16.00;;;11.20;47.20;;;;;;20580;6834;276785;-73
2023/04/09 02:04:49;;;;;;;15.70;14.48;;;11.30;46.80;;;;;;20740;6834;118331;-73
2023/04/09 02:07:17;;;;;;;14.53;13.33;;;11.10;46.80;;;;;;20712;6834;121676;-73
2023/04/09 02:09:43;;;;;;;16.10;14.80;;;10.80;47.30;;;;;;20509;6834;279562;-73
2023/04/09 02:12:08;;;;;;;15.30;14.10;;;10.80;47.90;;;;;;20744;6834;117650;-73
2023/04/09 02:14:35;;;;;;;13.25;12.32;;;10.60;48.00;;;;;;20739;6834;123514;-73
2023/04/09 02:17:00;;;;;;;14.37;13.20;;;10.60;48.00;;;;;;20690;6834;117429;-74
2023/04/09 02:19:43;;;;;;;14.87;13.77;;;10.40;48.30;;;;;;20623;6854;118323;-73
2023/04/09 02:22:08;;;;;;;17.57;16.27;;;10.20;48.40;;;;;;20457;6846;338361;-73
2023/04/09 02:24:35;;;;;;;18.73;17.33;;;10.40;48.80;;;;;;20509;6839;299931;-73
2023/04/09 02:27:13;;;;;;;18.07;16.67;;;10.80;48.50;;;;;;20453;6847;294039;-75
2023/04/09 02:29:38;;;;;;;18.60;17.25;;;11.00;47.90;;;;;;20469;6839;278501;-73
2023/04/09 02:32:04;;;;;;;18.37;16.97;;;11.20;47.40;;;;;;20486;6847;309023;-74
2023/04/09 02:34:29;;;;;;;17.50;16.30;;;11.40;47.30;;;;;;20519;6837;281666;-73
2023/04/09 02:36:55;;;;;;;16.30;15.10;;;11.40;46.70;;;;;;20473;6847;307725;-73
2023/04/09 02:39:21;;;;;;;14.75;13.52;;;11.50;46.70;;;;;;20702;6838;117902;-74
2023/04/09 02:41:46;;;;;;;15.23;14.23;;;11.30;46.90;;;;;;20507;6839;283801;-75
2023/04/09 02:44:12;;;;;;;15.67;14.57;;;11.20;47.00;;;;;;20470;6847;308123;-73
2023/04/09 02:46:37;;;;;;;14.90;13.65;;;11.40;46.80;;;;;;20665;6854;117740;-74
2023/04/09 02:49:03;;;;;;;13.73;12.53;;;11.20;46.80;;;;;;20665;6847;119399;-73
2023/04/09 02:51:28;;;;;;;14.52;13.07;;;10.90;47.20;;;;;;20721;6839;117600;-73
2023/04/09 02:53:54;;;;;;;14.13;12.93;;;10.70;47.50;;;;;;20688;6847;117907;-73
2023/04/09 02:56:19;;;;;;;16.20;15.10;;;10.40;47.70;;;;;;20442;6854;342072;-73
2023/04/09 02:58:48;;;;;;;16.10;14.90;;;10.60;48.00;;;;;;20484;6847;278643;-74
2023/04/09 03:01:11;;;;;;;13.77;12.67;;;10.90;47.50;;;;;;20681;6839;117729;-73
2023/04/09 03:03:38;;;;;;;15.57;14.43;;;10.90;47.30;;;;;;20505;6839;337222;-73
2023/04/09 03:06:02;;;;;;;16.00;14.87;;;10.90;47.50;;;;;;20481;6847;278167;-74
2023/04/09 03:08:27;;;;;;;15.97;14.87;;;11.20;47.40;;;;;;20513;6839;280465;-74
2023/04/09 03:10:53;;;;;;;16.08;15.00;;;11.40;47.20;;;;;;20474;6847;340228;-73
2023/04/09 03:13:18;;;;;;;17.25;15.93;;;11.50;47.00;;;;;;20483;6839;316835;-74
2023/04/09 03:15:44;;;;;;;14.50;13.40;;;11.60;46.60;;;;;;20688;6847;117777;-73
2023/04/09 03:18:11;;;;;;;16.00;14.80;;;11.40;46.70;;;;;;20486;6839;283465;-74
2023/04/09 03:20:37;;;;;;;15.63;14.33;;;11.40;47.40;;;;;;20696;6847;118262;-73
2023/04/09 03:23:03;;;;;;;14.90;13.68;;;10.80;47.60;;;;;;20699;6839;117770;-74
2023/04/09 03:25:28;;;;;;;15.43;14.20;;;10.80;47.60;;;;;;20670;6847;118184;-74
2023/04/09 03:27:54;;;;;;;17.48;16.15;;;10.50;47.80;;;;;;20510;6839;315119;-73
2023/04/09 03:30:20;;;;;;;15.73;14.43;;;10.60;48.30;;;;;;20687;6847;118990;-73
2023/04/09 03:32:45;;;;;;;17.80;16.37;;;10.60;48.10;;;;;;20504;6839;317386;-73
2023/04/09 03:35:11;;;;;;;18.00;16.63;;;10.70;48.50;;;;;;20452;6847;311956;-73
2023/04/09 03:37:36;;;;;;;18.05;16.75;;;10.90;48.10;;;;;;20502;6839;311256;-74
2023/04/09 03:40:02;;;;;;;14.98;13.77;;;11.20;47.70;;;;;;20723;6839;118908;-73
2023/04/09 03:42:27;;;;;;;18.50;17.00;;;10.90;47.50;;;;;;20475;6847;313563;-73
2023/04/09 03:44:54;;;;;;;17.83;16.52;;;11.10;48.10;;;;;;20498;6839;278550;-73
2023/04/09 03:47:19;;;;;;;15.87;14.50;;;11.10;47.40;;;;;;20679;6846;119628;-74
2023/04/09 03:49:45;;;;;;;15.00;13.77;;;10.90;47.40;;;;;;20717;6838;117854;-74
2023/04/09 03:52:12;;;;;;;15.23;13.90;;;10.50;47.80;;;;;;20689;6847;117963;-73
2023/04/09 03:54:38;;;;;;;16.65;15.35;;;10.20;48.20;;;;;;20492;6839;343071;-74
2023/04/09 03:57:03;;;;;;;17.58;16.35;;;10.40;49.00;;;;;;20442;6847;342049;-75
2023/04/09 03:59:29;;;;;;;11.20;10.43;;;10.60;48.30;;;;;;20718;6839;124446;-74
2023/04/09 04:01:54;;;;;;;9.63;8.90;;;10.60;48.20;;;;;;20492;6847;278625;-74
2023/04/09 04:04:20;;;;;;;9.23;8.52;;;10.60;48.70;;;;;;20529;6839;281435;-77
2023/04/09 04:06:45;;;;;;;9.57;8.83;;;10.90;48.50;;;;;;20475;6847;308142;-74
2023/04/09 04:09:11;;;;;;;9.18;8.48;;;11.30;48.00;;;;;;20710;6839;117836;-74
2023/04/09 04:11:36;;;;;;;8.97;8.47;;;11.30;47.70;;;;;;20477;6847;310222;-74
2023/04/09 04:14:02;;;;;;;8.93;8.43;;;11.40;47.50;;;;;;20718;6839;118126;-74
2023/04/09 04:16:28;;;;;;;9.30;8.60;;;11.40;47.50;;;;;;20481;6847;279422;-75
2023/04/09 04:18:53;;;;;;;17.17;15.88;;;11.50;47.40;;;;;;20507;6839;278125;-74
2023/04/09 04:21:19;;;;;;;17.43;15.83;;;11.80;46.80;;;;;;20461;6847;326276;-74
2023/04/09 04:23:44;;;;;;;14.40;13.03;;;12.00;46.20;;;;;;20668;6854;118213;-75
2023/04/09 04:26:10;;;;;;;18.07;16.67;;;11.70;46.10;;;;;;20482;6847;278689;-74
2023/04/09 04:28:38;;;;;;;15.80;14.50;;;11.60;46.30;;;;;;20711;6839;117983;-74
2023/04/09 04:31:10;;;;;;;17.53;16.33;;;11.40;46.50;;;;;;20457;6847;307766;-74
2023/04/09 04:33:36;;;;;;;18.03;16.73;;;11.30;46.60;;;;;;20503;6839;311160;-73
2023/04/09 04:36:07;;;;;;;19.67;18.17;;;11.40;46.60;;;;;;20477;6847;302659;-74
2023/04/09 04:38:33;;;;;;;17.33;15.93;;;11.50;46.70;;;;;;20715;6839;117409;-74
2023/04/09 04:40:59;;;;;;;16.00;14.70;;;11.10;46.60;;;;;;20667;6847;117699;-74
2023/04/09 04:43:24;;;;;;;19.20;17.70;;;10.70;47.20;;;;;;20458;6854;337342;-74
2023/04/09 04:45:51;;;;;;;16.60;15.20;;;10.50;48.00;;;;;;20660;6854;120642;-74
2023/04/09 04:48:16;;;;;;;15.70;14.40;;;10.50;48.00;;;;;;20718;6834;121396;-74
2023/04/09 04:50:42;;;;;;;16.70;15.30;;;10.20;48.30;;;;;;20678;6853;118534;-74
2023/04/09 04:53:07;;;;;;;15.53;14.13;;;10.00;48.60;;;;;;20758;6822;118933;-74
2023/04/09 04:55:38;;;;;;;15.47;14.17;;;9.80;49.90;;;;;;20763;6822;117562;-74
2023/04/09 04:58:02;;;;;;;14.73;13.43;;;9.70;50.10;;;;;;20781;6820;117287;-74
2023/04/09 05:00:27;;;;;;;15.23;13.88;;;9.50;50.20;;;;;;20775;6821;117853;-74
2023/04/09 05:02:53;;;;;;;18.10;16.67;;;9.40;50.30;;;;;;20550;6821;334684;-74
2023/04/09 05:05:19;;;;;;;15.53;14.13;;;9.70;51.10;;;;;;20750;6821;117892;-74
2023/04/09 05:07:44;;;;;;;18.60;17.13;;;9.80;50.70;;;;;;20533;6821;280121;-74
2023/04/09 05:10:10;;;;;;;18.93;17.47;;;10.00;49.30;;;;;;20552;6821;307538;-76
2023/04/09 05:12:35;;;;;;;16.10;14.80;;;10.40;49.20;;;;;;20775;6821;120116;-77
2023/04/09 05:15:01;;;;;;;16.53;15.13;;;10.30;48.80;;;;;;20764;6821;117728;-77
2023/04/09 05:17:27;;;;;;;18.85;17.25;;;10.10;49.00;;;;;;20568;6821;306476;-77
2023/04/09 05:19:52;;;;;;;17.03;15.57;;;10.30;49.40;;;;;;20794;6822;117584;-77
2023/04/09 05:22:17;;;;;;;16.03;14.70;;;10.20;49.10;;;;;;20794;6822;117857;-77
2023/04/09 05:24:43;;;;;;;18.17;16.77;;;10.10;49.30;;;;;;20576;6822;324655;-79
2023/04/09 05:27:09;;;;;;;60.60;55.10;;;10.20;49.50;;;;;;20556;6822;278068;-78
2023/04/09 05:29:34;;;;;;;16.17;14.90;;;10.60;48.90;;;;;;20583;6822;307004;-77
2023/04/09 05:32:00;;;;;;;15.82;14.63;;;10.90;48.70;;;;;;20583;6822;312195;-75
2023/04/09 05:34:25;;;;;;;14.60;13.20;;;11.20;48.60;;;;;;20794;6822;117400;-76
2023/04/09 05:36:51;;;;;;;13.53;12.23;;;11.00;48.30;;;;;;20787;6822;118042;-75
2023/04/09 05:39:17;;;;;;;12.90;11.88;;;10.70;48.50;;;;;;20762;6822;186887;-75
2023/04/09 05:41:43;;;;;;;12.33;11.27;;;10.50;49.00;;;;;;20789;6822;117929;-75
2023/04/09 05:44:08;;;;;;;12.17;11.13;;;10.20;49.50;;;;;;20779;6822;117785;-75
2023/04/09 05:46:34;;;;;;;14.23;13.20;;;10.10;49.50;;;;;;20575;6822;307383;-72
2023/04/09 05:49:00;;;;;;;14.43;13.23;;;10.40;50.60;;;;;;20770;6822;148810;-72
2023/04/09 05:51:26;;;;;;;12.53;11.53;;;10.40;50.20;;;;;;20781;6822;117714;-74
2023/04/09 05:53:51;;;;;;;14.55;13.55;;;10.40;50.30;;;;;;20575;6822;339855;-72
2023/04/09 05:56:21;;;;;;;12.57;11.60;;;10.60;50.80;;;;;;20789;6822;117390;-74
2023/04/09 05:58:47;;;;;;;12.00;11.20;;;10.70;50.40;;;;;;20795;6822;117449;-78
2023/04/09 06:01:12;;;;;;;14.48;13.45;;;10.60;50.40;;;;;;20566;6822;337028;-76
2023/04/09 06:03:38;;;;;;;13.20;12.17;;;10.80;50.60;;;;;;20786;6822;118335;-73
2023/04/09 06:06:04;;;;;;;12.60;11.60;;;10.90;50.30;;;;;;20798;6822;118190;-73
2023/04/09 06:08:29;;;;;;;13.17;12.13;;;10.80;50.20;;;;;;20760;6822;119103;-73
2023/04/09 06:10:55;;;;;;;13.43;12.23;;;10.60;50.80;;;;;;20782;6820;122644;-72
2023/04/09 06:13:20;;;;;;;12.20;11.27;;;10.40;50.10;;;;;;20771;6821;117564;-73
2023/04/09 06:15:47;;;;;;;15.37;14.07;;;10.30;50.80;;;;;;20792;6821;117789;-72
2023/04/09 06:18:12;;;;;;;15.83;14.57;;;10.20;50.70;;;;;;20583;6821;307506;-72
2023/04/09 06:20:38;;;;;;;15.43;14.35;;;10.70;50.70;;;;;;20579;6821;278195;-73
2023/04/09 06:23:03;;;;;;;14.93;13.80;;;11.30;49.70;;;;;;20769;6821;117813;-73
2023/04/09 06:25:30;;;;;;;14.32;13.13;;;11.60;49.40;;;;;;20788;6821;118535;-71
2023/04/09 06:27:55;;;;;;;13.93;12.83;;;11.60;49.30;;;;;;20781;6821;117387;-77
2023/04/09 06:30:21;;;;;;;13.63;12.53;;;11.60;49.20;;;;;;20787;6822;119109;-73
2023/04/09 06:32:47;;;;;;;16.40;15.30;;;11.60;49.20;;;;;;20581;6822;307011;-72
2023/04/09 06:35:12;;;;;;;16.37;15.20;;;11.90;47.90;;;;;;20546;6822;309281;-72
2023/04/09 06:37:37;;;;;;;16.83;15.63;;;12.30;46.90;;;;;;20600;6822;278161;-74
2023/04/09 06:40:03;;;;;;;16.60;15.30;;;12.60;46.00;;;;;;20588;6822;336323;-73
2023/04/09 06:42:29;;;;;;;15.40;14.20;;;12.80;45.30;;;;;;20796;6822;117693;-71
2023/04/09 06:44:54;;;;;;;16.23;15.03;;;12.60;45.40;;;;;;20589;6822;307690;-74
2023/04/09 06:47:20;;;;;;;15.57;14.57;;;12.60;46.10;;;;;;20563;6822;279706;-73
2023/04/09 06:49:45;;;;;;;17.07;15.83;;;12.80;45.00;;;;;;20572;6822;307126;-74
2023/04/09 06:52:11;;;;;;;15.07;13.98;;;13.00;44.50;;;;;;20804;6822;120587;-74
2023/04/09 06:54:37;;;;;;;14.20;13.00;;;12.90;44.70;;;;;;20799;6822;120509;-73
2023/04/09 06:57:02;;;;;;;15.50;14.40;;;12.60;45.40;;;;;;20569;6822;281654;-74
2023/04/09 06:59:29;;;;;;;15.87;14.77;;;13.10;45.70;;;;;;20605;6821;302129;-72
2023/04/09 07:01:54;;;;;;;12.87;12.07;;;13.00;45.60;;;;;;20779;6822;119629;-74
2023/04/09 07:04:20;;;;;;;15.20;14.20;;;13.10;45.60;;;;;;20544;6822;277729;-76
2023/04/09 07:06:45;;;;;;;13.90;12.80;;;13.30;44.80;;;;;;20787;6822;117457;-73
2023/04/09 07:09:11;;;;;;;15.67;14.57;;;13.30;44.80;;;;;;20559;6822;292189;-73
2023/04/09 07:11:36;;;;;;;15.73;14.68;;;13.50;44.20;;;;;;20573;6822;278031;-73
2023/04/09 07:14:03;;;;;;;15.03;13.83;;;13.80;43.00;;;;;;20796;6822;117635;-74
2023/04/09 07:16:29;;;;;;;15.40;14.40;;;13.70;43.20;;;;;;20587;6822;310702;-71
2023/04/09 07:18:54;;;;;;;14.97;13.97;;;13.80;43.00;;;;;;20585;6822;307454;-73
2023/04/09 07:21:21;;;;;;;12.90;11.90;;;14.20;42.60;;;;;;20779;6820;117332;-75
2023/04/09 07:23:46;;;;;;;13.17;12.07;;;14.30;42.60;;;;;;20788;6821;120449;-73
2023/04/09 07:26:12;;;;;;;14.93;13.97;;;14.20;42.60;;;;;;20569;6821;278038;-74
2023/04/09 07:28:38;;;;;;;12.55;11.65;;;14.40;41.10;;;;;;20795;6821;117378;-73
2023/04/09 07:31:04;;;;;;;11.67;10.80;;;14.40;41.10;;;;;;20765;6821;118974;-73
2023/04/09 07:33:29;;;;;;;13.03;12.23;;;14.30;41.60;;;;;;20569;6821;336623;-77
2023/04/09 07:35:55;;;;;;;13.50;12.60;;;14.50;40.40;;;;;;20575;6821;280212;-75
2023/04/09 07:38:20;;;;;;;13.47;12.57;;;14.80;39.90;;;;;;20579;6821;305606;-73
2023/04/09 07:40:46;;;;;;;13.23;12.33;;;15.20;38.80;;;;;;20575;6822;277153;-72
2023/04/09 07:43:11;;;;;;;10.33;9.60;;;15.50;37.70;;;;;;20785;6822;117563;-71
2023/04/09 07:45:38;;;;;;;9.68;9.07;;;15.20;38.20;;;;;;20791;6822;118485;-71
2023/04/09 07:48:03;;;;;;;10.60;9.90;;;15.20;38.70;;;;;;20776;6822;117169;-70
2023/04/09 07:50:30;;;;;;;11.07;10.43;;;15.20;37.90;;;;;;20581;6822;309511;-70
2023/04/09 07:52:55;;;;;;;11.50;10.85;;;15.20;37.10;;;;;;20582;6822;309174;-70
2023/04/09 07:55:21;;;;;;;12.00;11.30;;;15.50;36.50;;;;;;20558;6822;321131;-71
2023/04/09 07:57:47;;;;;;;10.90;10.10;;;15.80;36.50;;;;;;20791;6822;117372;-71
2023/04/09 08:00:12;;;;;;;11.00;10.30;;;15.70;36.70;;;;;;20788;6822;117435;-70
2023/04/09 08:02:39;;;;;;;11.47;10.77;;;15.50;37.50;;;;;;20577;6822;279699;-71
2023/04/09 08:05:05;;;;;;;12.03;11.33;;;15.50;36.60;;;;;;20563;6822;277136;-70
2023/04/09 08:07:31;;;;;;;11.63;10.83;;;15.30;36.10;;;;;;20800;6822;118071;-71
2023/04/09 08:09:57;;;;;;;13.00;12.20;;;15.30;36.40;;;;;;20585;6822;307949;-70
2023/04/09 08:12:22;;;;;;;11.63;10.80;;;15.10;37.20;;;;;;20799;6822;117753;-71
2023/04/09 08:14:49;;;;;;;12.65;11.85;;;14.80;37.70;;;;;;20588;6822;336305;-71
2023/04/09 08:17:15;;;;;;;11.57;10.77;;;14.80;37.90;;;;;;20779;6822;123902;-70
2023/04/09 08:19:40;;;;;;;12.65;11.55;;;14.70;38.30;;;;;;20580;6822;307811;-70
2023/04/09 08:22:07;;;;;;;13.07;12.27;;;15.10;38.00;;;;;;20572;6822;306536;-69
2023/04/09 08:24:33;;;;;;;11.30;10.60;;;15.10;38.00;;;;;;20575;6822;277534;-71
2023/04/09 08:26:58;;;;;;;10.33;9.60;;;15.40;36.60;;;;;;20769;6822;127194;-71
2023/04/09 08:29:23;;;;;;;10.07;9.37;;;15.20;36.20;;;;;;20792;6822;117610;-70
2023/04/09 08:31:52;;;;;;;10.17;9.47;;;14.50;37.60;;;;;;20728;6822;118489;-70
2023/04/09 08:34:30;;;;;;;11.07;10.43;;;14.40;37.50;;;;;;20495;6820;309674;-71
2023/04/09 08:36:57;;;;;;;10.63;9.93;;;14.50;37.00;;;;;;20434;6821;337659;-70
2023/04/09 08:39:28;;;;;;;10.87;10.17;;;14.80;36.90;;;;;;20468;6821;324840;-70
2023/04/09 08:41:57;;;;;;;11.07;10.37;;;15.10;36.60;;;;;;20720;6821;69380;-70
2023/04/09 08:44:37;;;;;;;8.97;8.47;;;15.10;37.00;;;;;;20709;6821;74942;-72
2023/04/09 08:47:17;;;;;;;9.93;9.33;;;14.90;37.30;;;;;;20328;6821;312583;-70
2023/04/09 08:49:47;;;;;;;9.43;8.83;;;15.10;37.00;;;;;;20661;6821;68392;-70
2023/04/09 08:52:15;;;;;;;9.63;8.83;;;15.40;37.40;;;;;;20325;6822;137733;-71
2023/04/09 08:54:39;;;;;;;9.03;8.43;;;15.50;37.10;;;;;;20730;6822;117216;-70
2023/04/09 08:57:05;;;;;;;8.70;8.20;;;15.50;37.00;;;;;;20529;6822;277507;-71
2023/04/09 08:59:35;;;;;;;7.27;6.87;;;16.00;34.20;;;;;;20780;6822;120900;-73
2023/04/09 09:02:06;;;;;;;6.87;6.50;;;16.00;34.20;;;;;;20538;6822;278612;-71
2023/04/09 09:04:32;;;;;;;4.57;4.37;;;16.20;32.00;;;;;;20763;6822;118169;-72
2023/04/09 09:06:58;;;;;;;5.40;5.20;;;16.30;32.10;;;;;;20491;6822;287347;-74
2023/04/09 09:09:25;;;;;;;4.80;4.50;;;16.50;29.40;;;;;;20523;6822;279205;-74
2023/04/09 09:11:49;;;;;;;5.33;5.03;;;16.80;31.30;;;;;;20541;6822;307132;-73
2023/04/09 09:14:14;;;;;;;4.53;4.33;;;17.10;30.80;;;;;;20773;6822;117013;-71
2023/04/09 09:16:43;;;;;;;5.70;5.40;;;17.10;31.20;;;;;;20545;6822;281939;-71
2023/04/09 09:19:09;;;;;;;6.50;6.20;;;17.20;29.90;;;;;;20452;6822;279235;-72
2023/04/09 09:21:35;;;;;;;6.20;5.90;;;17.50;29.90;;;;;;20510;6822;310368;-76
2023/04/09 09:24:00;;;;;;;5.90;5.60;;;17.80;29.50;;;;;;20561;6822;292433;-73
2023/04/09 09:26:26;;;;;;;5.50;5.20;;;18.10;29.10;;;;;;20782;6822;117212;-76
2023/04/09 09:28:51;;;;;;;5.00;4.73;;;18.10;29.20;;;;;;20750;6822;122978;-75
2023/04/09 09:31:16;;;;;;;4.70;4.50;;;17.90;29.50;;;;;;20759;6822;117087;-75
2023/04/09 09:37:07;;;;;;;4.77;4.57;;;17.50;29.30;;;;;;20700;6822;119324;-75
2023/04/09 09:39:46;;;;;;;7.40;6.90;;;16.90;29.90;;;;;;20698;6822;117908;-75
2023/04/09 09:42:11;;;;;;;5.93;5.43;;;16.60;30.20;;;;;;20550;6822;316823;-75
2023/04/09 09:44:37;;;;;;;6.10;5.70;;;16.70;29.70;;;;;;20558;6820;341577;-73
2023/04/09 09:47:02;;;;;;;6.80;6.50;;;16.90;29.10;;;;;;20527;6821;307736;-73
2023/04/09 09:49:28;;;;;;;6.53;6.22;;;17.00;28.70;;;;;;20571;6821;336450;-77
2023/04/09 09:51:53;;;;;;;6.40;6.10;;;17.10;28.60;;;;;;20776;6821;117696;-74
2023/04/09 09:54:19;;;;;;;6.00;5.70;;;16.80;29.00;;;;;;20585;6821;284549;-81
2023/04/09 09:56:45;;;;;;;6.50;6.10;;;16.70;29.30;;;;;;20769;6821;117558;-75
2023/04/09 09:59:20;;;;;;;6.97;6.60;;;16.50;29.80;;;;;;20533;6821;307498;-76
2023/04/09 10:01:46;;;;;;;5.93;5.63;;;16.50;29.60;;;;;;20769;6821;117046;-75
2023/04/09 10:04:12;;;;;;;6.70;6.40;;;16.30;30.00;;;;;;20516;6822;322859;-74
2023/04/09 10:06:37;;;;;;;6.10;5.80;;;16.20;30.20;;;;;;20729;6822;117278;-71
2023/04/09 10:09:03;;;;;;;7.53;7.13;;;16.00;30.60;;;;;;20539;6822;293580;-72
2023/04/09 10:11:28;;;;;;;7.67;7.27;;;16.00;30.80;;;;;;20567;6822;281741;-74
2023/04/09 10:14:00;;;;;;;7.27;6.87;;;16.10;30.60;;;;;;20765;6822;67489;-76
2023/04/09 10:16:26;;;;;;;6.63;6.23;;;15.90;30.80;;;;;;20780;6822;116876;-74
2023/04/09 10:18:51;;;;;;;6.43;6.03;;;15.50;31.20;;;;;;20787;6822;118655;-78
2023/04/09 10:21:23;;;;;;;7.73;7.33;;;15.20;31.70;;;;;;20558;6822;277643;-77
2023/04/09 10:23:49;;;;;;;7.50;7.10;;;15.40;31.90;;;;;;20553;6822;306640;-76
2023/04/09 10:26:15;;;;;;;6.43;6.10;;;15.80;31.80;;;;;;20760;6822;117194;-74
2023/04/09 10:28:40;;;;;;;7.27;6.87;;;15.90;31.80;;;;;;20762;6822;117698;-75
2023/04/09 10:31:06;;;;;;;5.97;5.68;;;15.70;31.70;;;;;;20737;6822;117211;-74
2023/04/09 10:33:32;;;;;;;5.43;5.13;;;15.50;31.80;;;;;;20777;6822;117489;-74
2023/04/09 10:36:00;;;;;;;6.13;5.83;;;15.40;32.30;;;;;;20563;6822;280467;-74
2023/04/09 10:38:39;;;;;;;6.05;5.75;;;15.60;31.60;;;;;;20569;6822;306574;-77
2023/04/09 10:41:11;;;;;;;5.70;5.40;;;16.00;30.00;;;;;;20783;6822;126035;-77
2023/04/09 10:43:37;;;;;;;5.80;5.40;;;16.00;30.00;;;;;;20795;6822;117313;-77
2023/04/09 10:46:03;;;;;;;5.80;5.50;;;15.80;30.00;;;;;;20797;6822;117055;-74
2023/04/09 10:48:28;;;;;;;5.87;5.57;;;15.60;30.20;;;;;;20579;6822;336912;-72
2023/04/09 10:50:54;;;;;;;5.50;5.20;;;15.80;28.70;;;;;;20771;6822;117052;-73
2023/04/09 10:53:22;;;;;;;6.35;6.05;;;15.80;29.00;;;;;;20556;6822;289280;-76
2023/04/09 10:55:51;;;;;;;5.40;5.10;;;15.90;28.50;;;;;;20776;6820;117650;-78
2023/04/09 10:58:14;;;;;;;7.30;6.90;;;16.00;29.10;;;;;;20559;6821;281410;-74
2023/04/09 11:00:44;;;;;;;7.30;6.90;;;16.20;29.20;;;;;;20574;6821;337052;-75
2023/04/09 11:03:12;;;;;;;6.50;6.20;;;16.50;29.00;;;;;;20551;6821;312420;-78
2023/04/09 11:05:38;;;;;;;5.37;5.17;;;16.80;28.30;;;;;;20482;6821;282720;-75
2023/04/09 11:08:10;;;;;;;5.20;5.00;;;17.00;27.30;;;;;;20290;6845;279073;-79
2023/04/09 11:10:43;;;;;;;5.53;5.22;;;17.10;27.10;;;;;;20588;6821;334651;-80
2023/04/09 11:13:12;;;;;;;4.83;4.60;;;17.20;27.40;;;;;;20740;6821;120916;-75
2023/04/09 11:15:38;;;;;;;5.75;5.45;;;17.10;27.50;;;;;;20559;6822;338344;-73
2023/04/09 11:18:05;;;;;;;5.83;5.47;;;16.90;27.00;;;;;;20794;6822;117084;-73
2023/04/09 11:20:30;;;;;;;5.55;5.25;;;16.60;27.60;;;;;;20573;6822;341066;-77
2023/04/09 11:22:55;;;;;;;5.60;5.10;;;16.60;27.60;;;;;;20783;6822;117410;-80
2023/04/09 11:25:25;;;;;;;5.77;5.47;;;16.50;28.20;;;;;;20784;6822;118033;-77
2023/04/09 11:27:50;;;;;;;5.87;5.57;;;16.40;28.30;;;;;;20558;6822;307892;-74
2023/04/09 11:30:16;;;;;;;5.00;4.70;;;16.40;28.20;;;;;;20794;6822;117085;-74
2023/04/09 11:32:42;;;;;;;5.62;5.32;;;16.40;28.50;;;;;;20587;6822;277406;-78
2023/04/09 11:35:13;;;;;;;5.43;5.13;;;16.50;28.70;;;;;;20767;6822;118300;-76
2023/04/09 11:37:39;;;;;;;5.27;4.97;;;16.50;28.90;;;;;;20780;6822;118742;-75
2023/04/09 11:40:05;;;;;;;4.60;4.40;;;16.30;29.10;;;;;;20787;6822;117360;-76
2023/04/09 11:42:31;;;;;;;6.17;5.77;;;16.20;29.20;;;;;;20787;6822;117394;-76
2023/04/09 11:44:58;;;;;;;5.57;5.28;;;16.30;28.30;;;;;;20573;6822;279224;-76
2023/04/09 11:47:23;;;;;;;5.53;5.27;;;16.30;28.30;;;;;;20396;6822;307427;-76
2023/04/09 11:49:50;;;;;;;6.50;6.20;;;16.70;28.40;;;;;;20569;6822;290329;-75
2023/04/09 11:52:16;;;;;;;5.27;4.97;;;16.90;27.60;;;;;;20789;6822;117521;-75
2023/04/09 11:54:42;;;;;;;5.23;4.93;;;16.90;28.00;;;;;;20792;6822;118613;-77
2023/04/09 11:57:07;;;;;;;6.60;6.30;;;16.70;28.50;;;;;;20535;6821;277633;-76
2023/04/09 11:59:33;;;;;;;6.47;6.18;;;16.80;27.90;;;;;;20583;6822;330729;-75
2023/04/09 12:02:00;;;;;;;6.00;5.70;;;17.20;28.00;;;;;;20577;6822;278869;-75
2023/04/09 12:04:25;;;;;;;6.40;6.10;;;17.20;28.00;;;;;;20788;6822;117784;-75
2023/04/09 12:06:50;;;;;;;6.25;5.95;;;17.10;27.90;;;;;;20576;6820;278654;-76
2023/04/09 12:09:17;;;;;;;5.90;5.60;;;17.30;28.10;;;;;;20539;6821;327444;-75
2023/04/09 12:11:42;;;;;;;6.60;6.20;;;17.30;28.10;;;;;;20798;6821;117419;-77
2023/04/09 12:14:12;;;;;;;5.70;5.40;;;17.10;28.40;;;;;;20774;6821;117300;-75
2023/04/09 12:16:40;;;;;;;5.37;5.07;;;17.10;28.40;;;;;;20790;6821;117053;-72
2023/04/09 12:19:06;;;;;;;5.50;5.10;;;16.90;28.60;;;;;;20765;6821;119526;-72
2023/04/09 12:21:48;;;;;;;5.70;5.43;;;16.80;28.70;;;;;;20574;6821;279434;-73
2023/04/09 12:24:13;;;;;;;5.30;5.00;;;17.00;28.50;;;;;;20571;6821;336044;-72